Terminal Aerodrome Forecast
Issued by NWS Billings, MT

Home | Current Version | Previous Version | Text Only | Print | Product List | Glossary On
Versions: 1 2 3 4 5 6 7 8 9 10 11 12 13
000
FTUS45 KBYZ 240520
TAFSHR
TAF
KSHR 240520Z 2406/2506 31010KT P6SM SKC
     FM241700 33013KT P6SM SCT100
     FM250000 32012KT P6SM VCTS SCT050 BKN080CB=

USA.gov is the U.S. government's official web portal to all federal, state and local government web resources and services.